sensor_id;sensor_type;location;lat;lon;timestamp;temperature;humidity
19106;DHT22;9685;54.338;18.672;2023-11-21T00:01:06;2.90;55.40
19106;DHT22;9685;54.338;18.672;2023-11-21T00:03:34;2.90;55.70
19106;DHT22;9685;54.338;18.672;2023-11-21T00:06:03;2.90;54.70
19106;DHT22;9685;54.338;18.672;2023-11-21T00:08:30;2.80;56.60
19106;DHT22;9685;54.338;18.672;2023-11-21T00:10:57;2.90;54.90
19106;DHT22;9685;54.338;18.672;2023-11-21T00:13:26;2.90;54.20
19106;DHT22;9685;54.338;18.672;2023-11-21T00:15:53;2.90;53.30
19106;DHT22;9685;54.338;18.672;2023-11-21T00:18:20;2.90;52.20
19106;DHT22;9685;54.338;18.672;2023-11-21T00:20:47;2.90;55.20
19106;DHT22;9685;54.338;18.672;2023-11-21T00:23:15;2.90;52.30
19106;DHT22;9685;54.338;18.672;2023-11-21T00:25:43;2.80;51.50
19106;DHT22;9685;54.338;18.672;2023-11-21T00:28:10;2.80;51.00
19106;DHT22;9685;54.338;18.672;2023-11-21T00:30:37;2.90;51.10
19106;DHT22;9685;54.338;18.672;2023-11-21T00:33:04;2.80;51.10
19106;DHT22;9685;54.338;18.672;2023-11-21T00:35:31;2.80;49.60
19106;DHT22;9685;54.338;18.672;2023-11-21T00:37:58;2.80;49.00
19106;DHT22;9685;54.338;18.672;2023-11-21T00:40:26;2.70;48.10
19106;DHT22;9685;54.338;18.672;2023-11-21T00:42:53;2.70;48.20
19106;DHT22;9685;54.338;18.672;2023-11-21T00:45:21;2.70;47.10
19106;DHT22;9685;54.338;18.672;2023-11-21T00:47:48;2.70;46.70
19106;DHT22;9685;54.338;18.672;2023-11-21T00:50:15;2.70;46.50
19106;DHT22;9685;54.338;18.672;2023-11-21T00:52:42;2.70;44.40
19106;DHT22;9685;54.338;18.672;2023-11-21T00:55:09;2.70;45.30
19106;DHT22;9685;54.338;18.672;2023-11-21T00:57:38;2.70;45.30
19106;DHT22;9685;54.338;18.672;2023-11-21T01:00:06;2.70;46.60
19106;DHT22;9685;54.338;18.672;2023-11-21T01:02:36;2.70;51.70
19106;DHT22;9685;54.338;18.672;2023-11-21T01:05:03;2.70;45.40
19106;DHT22;9685;54.338;18.672;2023-11-21T01:07:33;2.70;46.70
19106;DHT22;9685;54.338;18.672;2023-11-21T01:10:00;2.70;45.60
19106;DHT22;9685;54.338;18.672;2023-11-21T01:12:26;2.70;45.30
19106;DHT22;9685;54.338;18.672;2023-11-21T01:14:55;2.70;44.90
19106;DHT22;9685;54.338;18.672;2023-11-21T01:17:22;2.70;45.20
19106;DHT22;9685;54.338;18.672;2023-11-21T01:19:49;2.70;45.00
19106;DHT22;9685;54.338;18.672;2023-11-21T01:22:16;2.70;45.30
19106;DHT22;9685;54.338;18.672;2023-11-21T01:24:43;2.70;45.10
19106;DHT22;9685;54.338;18.672;2023-11-21T01:27:10;2.70;43.70
19106;DHT22;9685;54.338;18.672;2023-11-21T01:29:37;2.80;43.80
19106;DHT22;9685;54.338;18.672;2023-11-21T01:32:05;2.70;43.70
19106;DHT22;9685;54.338;18.672;2023-11-21T01:34:33;2.70;44.90
19106;DHT22;9685;54.338;18.672;2023-11-21T01:37:00;2.80;43.40
19106;DHT22;9685;54.338;18.672;2023-11-21T01:39:30;2.90;44.50
19106;DHT22;9685;54.338;18.672;2023-11-21T01:41:57;2.80;43.80
19106;DHT22;9685;54.338;18.672;2023-11-21T01:44:24;2.90;45.30
19106;DHT22;9685;54.338;18.672;2023-11-21T01:46:51;2.80;42.30
19106;DHT22;9685;54.338;18.672;2023-11-21T01:49:20;2.90;43.30
19106;DHT22;9685;54.338;18.672;2023-11-21T01:51:49;2.90;43.60
19106;DHT22;9685;54.338;18.672;2023-11-21T01:54:17;2.90;45.00
19106;DHT22;9685;54.338;18.672;2023-11-21T01:56:46;3.00;44.50
19106;DHT22;9685;54.338;18.672;2023-11-21T01:59:18;2.90;43.60
19106;DHT22;9685;54.338;18.672;2023-11-21T02:01:46;3.00;43.60
19106;DHT22;9685;54.338;18.672;2023-11-21T02:04:13;3.00;42.30
19106;DHT22;9685;54.338;18.672;2023-11-21T02:06:42;3.00;42.20
19106;DHT22;9685;54.338;18.672;2023-11-21T02:09:10;3.00;42.20
19106;DHT22;9685;54.338;18.672;2023-11-21T02:11:40;3.00;41.70
19106;DHT22;9685;54.338;18.672;2023-11-21T02:14:08;2.90;41.20
19106;DHT22;9685;54.338;18.672;2023-11-21T02:16:35;3.10;41.80
19106;DHT22;9685;54.338;18.672;2023-11-21T02:19:02;2.90;40.00
19106;DHT22;9685;54.338;18.672;2023-11-21T02:21:32;3.00;42.70
19106;DHT22;9685;54.338;18.672;2023-11-21T02:24:01;2.90;40.60
19106;DHT22;9685;54.338;18.672;2023-11-21T02:26:28;2.90;39.50
19106;DHT22;9685;54.338;18.672;2023-11-21T02:28:55;2.90;39.20
19106;DHT22;9685;54.338;18.672;2023-11-21T02:31:23;2.90;39.30
19106;DHT22;9685;54.338;18.672;2023-11-21T02:33:50;2.90;39.10
19106;DHT22;9685;54.338;18.672;2023-11-21T02:36:18;3.00;39.10
19106;DHT22;9685;54.338;18.672;2023-11-21T02:38:47;3.00;40.10
19106;DHT22;9685;54.338;18.672;2023-11-21T02:41:15;3.00;39.30
19106;DHT22;9685;54.338;18.672;2023-11-21T02:43:42;3.00;38.50
19106;DHT22;9685;54.338;18.672;2023-11-21T02:46:09;3.10;39.00
19106;DHT22;9685;54.338;18.672;2023-11-21T02:48:36;3.00;39.10
19106;DHT22;9685;54.338;18.672;2023-11-21T02:51:03;3.00;37.90
19106;DHT22;9685;54.338;18.672;2023-11-21T02:53:30;3.00;39.70
19106;DHT22;9685;54.338;18.672;2023-11-21T02:55:57;3.00;38.00
19106;DHT22;9685;54.338;18.672;2023-11-21T02:58:25;3.00;37.50
19106;DHT22;9685;54.338;18.672;2023-11-21T03:00:52;3.20;38.80
19106;DHT22;9685;54.338;18.672;2023-11-21T03:03:19;3.00;39.30
19106;DHT22;9685;54.338;18.672;2023-11-21T03:05:46;3.10;38.30
19106;DHT22;9685;54.338;18.672;2023-11-21T03:08:13;3.00;38.30
19106;DHT22;9685;54.338;18.672;2023-11-21T03:10:40;3.00;39.40
19106;DHT22;9685;54.338;18.672;2023-11-21T03:13:07;3.00;59.40
19106;DHT22;9685;54.338;18.672;2023-11-21T03:15:35;3.00;37.60
19106;DHT22;9685;54.338;18.672;2023-11-21T03:18:02;3.10;38.80
19106;DHT22;9685;54.338;18.672;2023-11-21T03:20:30;3.10;39.20
19106;DHT22;9685;54.338;18.672;2023-11-21T03:22:57;3.10;38.50
19106;DHT22;9685;54.338;18.672;2023-11-21T03:25:25;3.10;38.50
19106;DHT22;9685;54.338;18.672;2023-11-21T03:27:52;3.10;38.20
19106;DHT22;9685;54.338;18.672;2023-11-21T03:30:19;3.10;38.10
19106;DHT22;9685;54.338;18.672;2023-11-21T03:32:48;3.10;38.60
19106;DHT22;9685;54.338;18.672;2023-11-21T03:35:14;3.10;38.40
19106;DHT22;9685;54.338;18.672;2023-11-21T03:37:42;3.20;39.30
19106;DHT22;9685;54.338;18.672;2023-11-21T03:40:09;3.20;38.60
19106;DHT22;9685;54.338;18.672;2023-11-21T03:42:38;3.10;40.20
19106;DHT22;9685;54.338;18.672;2023-11-21T03:45:06;3.10;38.80
19106;DHT22;9685;54.338;18.672;2023-11-21T03:47:33;3.10;41.30
19106;DHT22;9685;54.338;18.672;2023-11-21T03:50:01;3.10;39.20
19106;DHT22;9685;54.338;18.672;2023-11-21T03:52:28;3.00;39.30
19106;DHT22;9685;54.338;18.672;2023-11-21T03:54:55;3.00;38.70
19106;DHT22;9685;54.338;18.672;2023-11-21T03:57:22;3.00;38.60
19106;DHT22;9685;54.338;18.672;2023-11-21T03:59:49;2.90;36.70
19106;DHT22;9685;54.338;18.672;2023-11-21T04:02:16;2.90;38.20
19106;DHT22;9685;54.338;18.672;2023-11-21T04:04:43;2.80;38.60
19106;DHT22;9685;54.338;18.672;2023-11-21T04:07:11;2.80;38.80
19106;DHT22;9685;54.338;18.672;2023-11-21T04:09:39;2.80;38.90
19106;DHT22;9685;54.338;18.672;2023-11-21T04:12:07;2.70;39.60
19106;DHT22;9685;54.338;18.672;2023-11-21T04:14:35;2.80;39.60
19106;DHT22;9685;54.338;18.672;2023-11-21T04:17:02;2.70;38.80
19106;DHT22;9685;54.338;18.672;2023-11-21T04:19:29;2.70;38.30
19106;DHT22;9685;54.338;18.672;2023-11-21T04:21:56;2.70;38.50
19106;DHT22;9685;54.338;18.672;2023-11-21T04:24:24;2.70;38.60
19106;DHT22;9685;54.338;18.672;2023-11-21T04:26:51;2.70;37.60
19106;DHT22;9685;54.338;18.672;2023-11-21T04:29:19;2.60;40.60
19106;DHT22;9685;54.338;18.672;2023-11-21T04:31:46;2.60;39.30
19106;DHT22;9685;54.338;18.672;2023-11-21T04:34:14;2.50;40.00
19106;DHT22;9685;54.338;18.672;2023-11-21T04:36:41;2.50;39.60
19106;DHT22;9685;54.338;18.672;2023-11-21T04:39:08;2.50;39.60
19106;DHT22;9685;54.338;18.672;2023-11-21T04:41:36;2.50;39.40
19106;DHT22;9685;54.338;18.672;2023-11-21T04:44:05;2.40;39.30
19106;DHT22;9685;54.338;18.672;2023-11-21T04:46:32;2.40;41.00
19106;DHT22;9685;54.338;18.672;2023-11-21T04:48:59;2.50;38.40
19106;DHT22;9685;54.338;18.672;2023-11-21T04:51:26;2.50;40.30
19106;DHT22;9685;54.338;18.672;2023-11-21T04:53:53;2.50;40.60
19106;DHT22;9685;54.338;18.672;2023-11-21T04:56:20;2.50;40.30
19106;DHT22;9685;54.338;18.672;2023-11-21T04:58:48;2.50;39.40
19106;DHT22;9685;54.338;18.672;2023-11-21T05:01:15;2.50;38.70
19106;DHT22;9685;54.338;18.672;2023-11-21T05:03:43;2.50;38.60
19106;DHT22;9685;54.338;18.672;2023-11-21T05:06:10;2.40;39.60
19106;DHT22;9685;54.338;18.672;2023-11-21T05:08:37;2.40;38.20
19106;DHT22;9685;54.338;18.672;2023-11-21T05:11:04;2.40;38.30
19106;DHT22;9685;54.338;18.672;2023-11-21T05:13:34;2.50;39.80
19106;DHT22;9685;54.338;18.672;2023-11-21T05:16:02;2.40;38.70
19106;DHT22;9685;54.338;18.672;2023-11-21T05:18:31;2.50;41.00
19106;DHT22;9685;54.338;18.672;2023-11-21T05:20:59;2.40;39.50
19106;DHT22;9685;54.338;18.672;2023-11-21T05:23:26;2.40;38.60
19106;DHT22;9685;54.338;18.672;2023-11-21T05:25:53;2.40;38.40
19106;DHT22;9685;54.338;18.672;2023-11-21T05:28:22;2.30;37.80
19106;DHT22;9685;54.338;18.672;2023-11-21T05:30:48;2.50;38.90
19106;DHT22;9685;54.338;18.672;2023-11-21T05:33:17;2.40;38.50
19106;DHT22;9685;54.338;18.672;2023-11-21T05:35:44;2.30;39.20
19106;DHT22;9685;54.338;18.672;2023-11-21T05:38:11;2.40;39.40
19106;DHT22;9685;54.338;18.672;2023-11-21T05:40:38;2.40;38.80
19106;DHT22;9685;54.338;18.672;2023-11-21T05:43:05;2.40;38.60
19106;DHT22;9685;54.338;18.672;2023-11-21T05:45:32;2.40;38.50
19106;DHT22;9685;54.338;18.672;2023-11-21T05:47:59;2.40;39.00
19106;DHT22;9685;54.338;18.672;2023-11-21T05:50:27;2.40;38.40
19106;DHT22;9685;54.338;18.672;2023-11-21T05:52:54;2.50;38.60
19106;DHT22;9685;54.338;18.672;2023-11-21T05:55:22;2.50;39.80
19106;DHT22;9685;54.338;18.672;2023-11-21T05:57:51;2.50;40.00
19106;DHT22;9685;54.338;18.672;2023-11-21T06:00:18;2.40;40.20
19106;DHT22;9685;54.338;18.672;2023-11-21T06:02:47;2.50;40.10
19106;DHT22;9685;54.338;18.672;2023-11-21T06:05:16;2.50;40.20
19106;DHT22;9685;54.338;18.672;2023-11-21T06:07:45;2.40;41.10
19106;DHT22;9685;54.338;18.672;2023-11-21T06:10:12;2.50;41.00
19106;DHT22;9685;54.338;18.672;2023-11-21T06:12:40;2.50;40.40
19106;DHT22;9685;54.338;18.672;2023-11-21T06:15:09;2.50;41.40
19106;DHT22;9685;54.338;18.672;2023-11-21T06:17:39;2.40;41.50
19106;DHT22;9685;54.338;18.672;2023-11-21T06:20:07;2.40;41.10
19106;DHT22;9685;54.338;18.672;2023-11-21T06:22:36;2.50;41.40
19106;DHT22;9685;54.338;18.672;2023-11-21T06:25:05;2.40;41.90
19106;DHT22;9685;54.338;18.672;2023-11-21T06:27:33;2.40;42.60
19106;DHT22;9685;54.338;18.672;2023-11-21T06:30:00;2.50;39.20
19106;DHT22;9685;54.338;18.672;2023-11-21T06:32:27;2.40;40.50
19106;DHT22;9685;54.338;18.672;2023-11-21T06:34:55;2.50;40.30
19106;DHT22;9685;54.338;18.672;2023-11-21T06:37:25;2.40;38.40
19106;DHT22;9685;54.338;18.672;2023-11-21T06:39:52;2.30;38.50
19106;DHT22;9685;54.338;18.672;2023-11-21T06:42:20;2.30;39.00
19106;DHT22;9685;54.338;18.672;2023-11-21T06:44:48;2.20;38.80
19106;DHT22;9685;54.338;18.672;2023-11-21T06:47:17;2.30;39.30
19106;DHT22;9685;54.338;18.672;2023-11-21T06:49:46;2.20;39.10
19106;DHT22;9685;54.338;18.672;2023-11-21T06:52:13;2.30;39.80
19106;DHT22;9685;54.338;18.672;2023-11-21T06:54:40;2.20;38.80
19106;DHT22;9685;54.338;18.672;2023-11-21T06:57:07;2.20;38.40
19106;DHT22;9685;54.338;18.672;2023-11-21T06:59:35;2.20;38.30
19106;DHT22;9685;54.338;18.672;2023-11-21T07:02:03;2.20;37.90
19106;DHT22;9685;54.338;18.672;2023-11-21T07:04:32;2.20;40.20
19106;DHT22;9685;54.338;18.672;2023-11-21T07:06:59;2.20;38.80
19106;DHT22;9685;54.338;18.672;2023-11-21T07:09:25;2.20;38.90
19106;DHT22;9685;54.338;18.672;2023-11-21T07:11:53;2.20;38.30
19106;DHT22;9685;54.338;18.672;2023-11-21T07:14:20;2.20;38.40
19106;DHT22;9685;54.338;18.672;2023-11-21T07:16:49;2.20;39.10
19106;DHT22;9685;54.338;18.672;2023-11-21T07:19:16;2.20;38.80
19106;DHT22;9685;54.338;18.672;2023-11-21T07:21:43;2.30;39.60
19106;DHT22;9685;54.338;18.672;2023-11-21T07:24:10;2.30;38.90
19106;DHT22;9685;54.338;18.672;2023-11-21T07:26:37;2.40;38.70
19106;DHT22;9685;54.338;18.672;2023-11-21T07:29:04;2.50;40.20
19106;DHT22;9685;54.338;18.672;2023-11-21T07:31:31;2.50;39.60
19106;DHT22;9685;54.338;18.672;2023-11-21T07:34:01;2.60;40.50
19106;DHT22;9685;54.338;18.672;2023-11-21T07:36:28;2.60;40.00
19106;DHT22;9685;54.338;18.672;2023-11-21T07:38:54;2.70;40.20
19106;DHT22;9685;54.338;18.672;2023-11-21T07:41:21;2.70;38.40
19106;DHT22;9685;54.338;18.672;2023-11-21T07:43:48;2.80;39.80
19106;DHT22;9685;54.338;18.672;2023-11-21T07:46:15;2.90;39.90
19106;DHT22;9685;54.338;18.672;2023-11-21T07:48:43;2.90;41.00
19106;DHT22;9685;54.338;18.672;2023-11-21T07:51:13;3.10;41.40
19106;DHT22;9685;54.338;18.672;2023-11-21T07:53:40;3.20;41.20
19106;DHT22;9685;54.338;18.672;2023-11-21T07:56:08;3.30;40.70
19106;DHT22;9685;54.338;18.672;2023-11-21T07:58:35;3.40;44.20
19106;DHT22;9685;54.338;18.672;2023-11-21T08:01:02;3.50;42.30
19106;DHT22;9685;54.338;18.672;2023-11-21T08:03:30;3.50;43.30
19106;DHT22;9685;54.338;18.672;2023-11-21T08:05:56;3.50;43.30
19106;DHT22;9685;54.338;18.672;2023-11-21T08:08:24;3.60;43.10
19106;DHT22;9685;54.338;18.672;2023-11-21T08:10:52;3.70;41.80
19106;DHT22;9685;54.338;18.672;2023-11-21T08:13:22;3.80;43.00
19106;DHT22;9685;54.338;18.672;2023-11-21T08:15:49;3.90;44.50
19106;DHT22;9685;54.338;18.672;2023-11-21T08:18:16;4.00;44.00
19106;DHT22;9685;54.338;18.672;2023-11-21T08:20:43;4.10;43.50
19106;DHT22;9685;54.338;18.672;2023-11-21T08:23:13;4.30;37.30
19106;DHT22;9685;54.338;18.672;2023-11-21T08:25:45;4.30;46.20
19106;DHT22;9685;54.338;18.672;2023-11-21T08:28:12;4.50;43.40
19106;DHT22;9685;54.338;18.672;2023-11-21T08:30:40;4.60;44.70
19106;DHT22;9685;54.338;18.672;2023-11-21T08:33:07;4.70;44.80
19106;DHT22;9685;54.338;18.672;2023-11-21T08:35:34;4.80;42.70
19106;DHT22;9685;54.338;18.672;2023-11-21T08:38:01;4.90;43.10
19106;DHT22;9685;54.338;18.672;2023-11-21T08:40:28;5.00;42.20
19106;DHT22;9685;54.338;18.672;2023-11-21T08:42:57;5.00;41.80
19106;DHT22;9685;54.338;18.672;2023-11-21T08:45:25;5.10;42.40
19106;DHT22;9685;54.338;18.672;2023-11-21T08:47:52;5.20;43.00
19106;DHT22;9685;54.338;18.672;2023-11-21T08:50:19;5.30;42.70
19106;DHT22;9685;54.338;18.672;2023-11-21T08:52:46;5.50;42.80
19106;DHT22;9685;54.338;18.672;2023-11-21T08:55:13;5.60;42.30
19106;DHT22;9685;54.338;18.672;2023-11-21T08:57:41;5.80;44.40
19106;DHT22;9685;54.338;18.672;2023-11-21T09:00:10;6.10;45.20
19106;DHT22;9685;54.338;18.672;2023-11-21T09:02:38;6.30;44.80
19106;DHT22;9685;54.338;18.672;2023-11-21T09:05:08;6.40;43.70
19106;DHT22;9685;54.338;18.672;2023-11-21T09:07:36;6.70;43.60
19106;DHT22;9685;54.338;18.672;2023-11-21T09:10:03;6.70;43.00
19106;DHT22;9685;54.338;18.672;2023-11-21T09:12:33;7.00;43.20
19106;DHT22;9685;54.338;18.672;2023-11-21T09:15:00;7.30;42.20
19106;DHT22;9685;54.338;18.672;2023-11-21T09:17:29;7.70;41.70
19106;DHT22;9685;54.338;18.672;2023-11-21T09:19:55;7.90;40.80
19106;DHT22;9685;54.338;18.672;2023-11-21T09:22:22;8.20;40.40
19106;DHT22;9685;54.338;18.672;2023-11-21T09:24:50;8.30;40.00
19106;DHT22;9685;54.338;18.672;2023-11-21T09:27:18;8.60;40.20
19106;DHT22;9685;54.338;18.672;2023-11-21T09:29:45;8.90;41.80
19106;DHT22;9685;54.338;18.672;2023-11-21T09:32:13;9.10;39.90
19106;DHT22;9685;54.338;18.672;2023-11-21T09:34:45;9.30;41.20
19106;DHT22;9685;54.338;18.672;2023-11-21T09:37:12;9.50;40.30
19106;DHT22;9685;54.338;18.672;2023-11-21T09:39:40;9.60;41.00
19106;DHT22;9685;54.338;18.672;2023-11-21T09:42:10;9.80;41.80
19106;DHT22;9685;54.338;18.672;2023-11-21T09:44:45;10.10;42.50
19106;DHT22;9685;54.338;18.672;2023-11-21T09:47:15;10.10;43.30
19106;DHT22;9685;54.338;18.672;2023-11-21T09:49:47;10.30;41.50
19106;DHT22;9685;54.338;18.672;2023-11-21T09:52:21;10.50;43.50
19106;DHT22;9685;54.338;18.672;2023-11-21T09:54:51;10.70;65.00
19106;DHT22;9685;54.338;18.672;2023-11-21T09:57:19;11.00;32.80
19106;DHT22;9685;54.338;18.672;2023-11-21T09:59:47;11.10;42.00
19106;DHT22;9685;54.338;18.672;2023-11-21T10:02:17;11.20;43.80
19106;DHT22;9685;54.338;18.672;2023-11-21T10:04:47;11.40;43.10
19106;DHT22;9685;54.338;18.672;2023-11-21T10:07:16;11.50;42.00
19106;DHT22;9685;54.338;18.672;2023-11-21T10:09:44;11.10;42.60
19106;DHT22;9685;54.338;18.672;2023-11-21T10:12:13;11.00;41.80
19106;DHT22;9685;54.338;18.672;2023-11-21T10:14:42;10.80;39.90
19106;DHT22;9685;54.338;18.672;2023-11-21T10:17:10;10.40;39.30
19106;DHT22;9685;54.338;18.672;2023-11-21T10:19:39;10.20;38.40
19106;DHT22;9685;54.338;18.672;2023-11-21T10:22:07;10.20;36.30
19106;DHT22;9685;54.338;18.672;2023-11-21T10:24:35;10.10;37.60
19106;DHT22;9685;54.338;18.672;2023-11-21T10:27:03;10.10;36.60
19106;DHT22;9685;54.338;18.672;2023-11-21T10:29:30;10.10;38.10
19106;DHT22;9685;54.338;18.672;2023-11-21T10:32:02;10.10;35.50
19106;DHT22;9685;54.338;18.672;2023-11-21T10:34:29;9.90;36.00
19106;DHT22;9685;54.338;18.672;2023-11-21T10:36:56;9.90;34.70
19106;DHT22;9685;54.338;18.672;2023-11-21T10:39:25;9.60;32.80
19106;DHT22;9685;54.338;18.672;2023-11-21T10:41:56;9.30;31.70
19106;DHT22;9685;54.338;18.672;2023-11-21T10:44:23;9.10;30.80
19106;DHT22;9685;54.338;18.672;2023-11-21T10:46:51;8.80;30.20
19106;DHT22;9685;54.338;18.672;2023-11-21T10:49:22;8.50;29.90
19106;DHT22;9685;54.338;18.672;2023-11-21T10:51:50;8.70;29.70
19106;DHT22;9685;54.338;18.672;2023-11-21T10:54:19;8.90;30.90
19106;DHT22;9685;54.338;18.672;2023-11-21T10:56:49;9.40;33.00
19106;DHT22;9685;54.338;18.672;2023-11-21T10:59:18;9.60;34.20
19106;DHT22;9685;54.338;18.672;2023-11-21T11:01:47;10.10;33.70
19106;DHT22;9685;54.338;18.672;2023-11-21T11:04:18;10.10;33.60
19106;DHT22;9685;54.338;18.672;2023-11-21T11:06:48;10.10;34.00
19106;DHT22;9685;54.338;18.672;2023-11-21T11:09:17;9.90;34.10
19106;DHT22;9685;54.338;18.672;2023-11-21T11:11:45;10.10;33.80
19106;DHT22;9685;54.338;18.672;2023-11-21T11:14:14;10.40;34.90
19106;DHT22;9685;54.338;18.672;2023-11-21T11:16:41;10.80;35.20
19106;DHT22;9685;54.338;18.672;2023-11-21T11:19:09;10.90;34.50
19106;DHT22;9685;54.338;18.672;2023-11-21T11:21:45;10.90;34.70
19106;DHT22;9685;54.338;18.672;2023-11-21T11:24:50;10.80;36.30
19106;DHT22;9685;54.338;18.672;2023-11-21T11:27:27;10.80;37.60
19106;DHT22;9685;54.338;18.672;2023-11-21T11:30:07;10.80;35.20
19106;DHT22;9685;54.338;18.672;2023-11-21T11:32:50;11.10;37.10
19106;DHT22;9685;54.338;18.672;2023-11-21T11:35:26;11.20;35.60
19106;DHT22;9685;54.338;18.672;2023-11-21T11:37:56;11.30;36.30
19106;DHT22;9685;54.338;18.672;2023-11-21T11:40:26;11.60;35.70
19106;DHT22;9685;54.338;18.672;2023-11-21T11:43:06;11.90;38.10
19106;DHT22;9685;54.338;18.672;2023-11-21T11:45:35;12.30;37.70
19106;DHT22;9685;54.338;18.672;2023-11-21T11:48:07;12.30;38.90
19106;DHT22;9685;54.338;18.672;2023-11-21T11:50:33;12.60;38.40
19106;DHT22;9685;54.338;18.672;2023-11-21T11:53:13;12.80;39.40
19106;DHT22;9685;54.338;18.672;2023-11-21T11:55:40;12.80;40.10
19106;DHT22;9685;54.338;18.672;2023-11-21T11:58:08;12.50;38.20
19106;DHT22;9685;54.338;18.672;2023-11-21T12:00:36;12.10;35.60
19106;DHT22;9685;54.338;18.672;2023-11-21T12:03:07;11.70;34.50
19106;DHT22;9685;54.338;18.672;2023-11-21T12:05:34;11.30;34.60
19106;DHT22;9685;54.338;18.672;2023-11-21T12:08:05;11.10;33.20
19106;DHT22;9685;54.338;18.672;2023-11-21T12:10:34;10.80;31.70
19106;DHT22;9685;54.338;18.672;2023-11-21T12:13:02;10.50;30.70
19106;DHT22;9685;54.338;18.672;2023-11-21T12:15:31;10.00;29.40
19106;DHT22;9685;54.338;18.672;2023-11-21T12:17:59;9.90;30.00
19106;DHT22;9685;54.338;18.672;2023-11-21T12:20:27;10.10;30.30
19106;DHT22;9685;54.338;18.672;2023-11-21T12:22:55;10.20;30.50
19106;DHT22;9685;54.338;18.672;2023-11-21T12:25:25;10.00;29.50
19106;DHT22;9685;54.338;18.672;2023-11-21T12:27:55;9.80;29.50
19106;DHT22;9685;54.338;18.672;2023-11-21T12:30:23;9.90;29.60
19106;DHT22;9685;54.338;18.672;2023-11-21T12:32:54;9.70;28.40
19106;DHT22;9685;54.338;18.672;2023-11-21T12:35:25;9.30;27.40
19106;DHT22;9685;54.338;18.672;2023-11-21T12:37:53;9.20;26.90
19106;DHT22;9685;54.338;18.672;2023-11-21T12:40:23;9.10;26.20
19106;DHT22;9685;54.338;18.672;2023-11-21T12:42:52;9.20;26.30
19106;DHT22;9685;54.338;18.672;2023-11-21T12:45:21;9.30;27.50
19106;DHT22;9685;54.338;18.672;2023-11-21T12:47:49;9.60;27.50
19106;DHT22;9685;54.338;18.672;2023-11-21T12:50:19;9.60;27.50
19106;DHT22;9685;54.338;18.672;2023-11-21T12:52:51;9.40;26.90
19106;DHT22;9685;54.338;18.672;2023-11-21T12:55:20;9.10;26.10
19106;DHT22;9685;54.338;18.672;2023-11-21T12:57:49;8.90;25.60
19106;DHT22;9685;54.338;18.672;2023-11-21T13:00:18;8.70;24.70
19106;DHT22;9685;54.338;18.672;2023-11-21T13:02:54;8.40;24.10
19106;DHT22;9685;54.338;18.672;2023-11-21T13:05:30;8.10;23.10
19106;DHT22;9685;54.338;18.672;2023-11-21T13:08:01;7.90;22.80
19106;DHT22;9685;54.338;18.672;2023-11-21T13:10:31;7.90;22.70
19106;DHT22;9685;54.338;18.672;2023-11-21T13:13:01;7.80;22.40
19106;DHT22;9685;54.338;18.672;2023-11-21T13:15:31;7.60;21.90
19106;DHT22;9685;54.338;18.672;2023-11-21T13:18:00;7.30;21.50
19106;DHT22;9685;54.338;18.672;2023-11-21T13:20:27;7.00;20.10
19106;DHT22;9685;54.338;18.672;2023-11-21T13:22:56;6.90;20.20
19106;DHT22;9685;54.338;18.672;2023-11-21T13:25:26;6.80;20.50
19106;DHT22;9685;54.338;18.672;2023-11-21T13:27:53;6.80;20.60
19106;DHT22;9685;54.338;18.672;2023-11-21T13:30:21;6.90;20.10
19106;DHT22;9685;54.338;18.672;2023-11-21T13:32:52;7.10;20.80
19106;DHT22;9685;54.338;18.672;2023-11-21T13:35:22;7.20;20.70
19106;DHT22;9685;54.338;18.672;2023-11-21T13:37:57;7.30;21.80
19106;DHT22;9685;54.338;18.672;2023-11-21T13:40:26;7.30;20.70
19106;DHT22;9685;54.338;18.672;2023-11-21T13:42:54;7.40;19.70
19106;DHT22;9685;54.338;18.672;2023-11-21T13:45:23;7.50;21.90
19106;DHT22;9685;54.338;18.672;2023-11-21T13:47:51;7.50;21.00
19106;DHT22;9685;54.338;18.672;2023-11-21T13:50:23;7.50;23.00
19106;DHT22;9685;54.338;18.672;2023-11-21T13:52:51;7.60;20.80
19106;DHT22;9685;54.338;18.672;2023-11-21T13:55:19;7.70;21.30
19106;DHT22;9685;54.338;18.672;2023-11-21T13:57:51;7.70;20.90
19106;DHT22;9685;54.338;18.672;2023-11-21T14:00:18;7.90;22.90
19106;DHT22;9685;54.338;18.672;2023-11-21T14:03:09;8.00;22.30
19106;DHT22;9685;54.338;18.672;2023-11-21T14:05:44;8.10;22.20
19106;DHT22;9685;54.338;18.672;2023-11-21T14:08:12;8.00;21.70
19106;DHT22;9685;54.338;18.672;2023-11-21T14:10:42;7.80;19.40
19106;DHT22;9685;54.338;18.672;2023-11-21T14:13:12;7.60;21.40
19106;DHT22;9685;54.338;18.672;2023-11-21T14:15:40;7.50;19.90
19106;DHT22;9685;54.338;18.672;2023-11-21T14:18:11;7.30;20.60
19106;DHT22;9685;54.338;18.672;2023-11-21T14:20:40;7.10;19.20
19106;DHT22;9685;54.338;18.672;2023-11-21T14:23:07;6.90;19.90
19106;DHT22;9685;54.338;18.672;2023-11-21T14:25:36;6.80;19.30
19106;DHT22;9685;54.338;18.672;2023-11-21T14:28:05;6.70;20.10
19106;DHT22;9685;54.338;18.672;2023-11-21T14:30:34;6.50;19.80
19106;DHT22;9685;54.338;18.672;2023-11-21T14:33:02;6.40;18.60
19106;DHT22;9685;54.338;18.672;2023-11-21T14:35:28;6.40;19.10
19106;DHT22;9685;54.338;18.672;2023-11-21T14:37:58;6.40;18.30
19106;DHT22;9685;54.338;18.672;2023-11-21T14:40:26;6.30;18.20
19106;DHT22;9685;54.338;18.672;2023-11-21T14:42:59;6.30;18.20
19106;DHT22;9685;54.338;18.672;2023-11-21T14:45:26;6.20;20.00
19106;DHT22;9685;54.338;18.672;2023-11-21T14:47:55;6.10;17.50
19106;DHT22;9685;54.338;18.672;2023-11-21T14:50:32;6.00;18.30
19106;DHT22;9685;54.338;18.672;2023-11-21T14:53:13;5.90;19.60
19106;DHT22;9685;54.338;18.672;2023-11-21T14:55:39;5.90;15.40
19106;DHT22;9685;54.338;18.672;2023-11-21T14:58:20;5.90;17.50
19106;DHT22;9685;54.338;18.672;2023-11-21T15:00:53;5.80;18.40
19106;DHT22;9685;54.338;18.672;2023-11-21T15:03:25;5.70;19.50
19106;DHT22;9685;54.338;18.672;2023-11-21T15:06:09;5.70;18.70
19106;DHT22;9685;54.338;18.672;2023-11-21T15:08:49;5.70;17.90
19106;DHT22;9685;54.338;18.672;2023-11-21T15:11:20;5.60;35.40
19106;DHT22;9685;54.338;18.672;2023-11-21T15:13:55;5.60;17.90
19106;DHT22;9685;54.338;18.672;2023-11-21T15:16:21;5.60;16.70
19106;DHT22;9685;54.338;18.672;2023-11-21T15:18:49;5.50;17.50
19106;DHT22;9685;54.338;18.672;2023-11-21T15:21:18;5.50;17.60
19106;DHT22;9685;54.338;18.672;2023-11-21T15:23:47;5.40;16.90
19106;DHT22;9685;54.338;18.672;2023-11-21T15:26:14;5.40;17.10
19106;DHT22;9685;54.338;18.672;2023-11-21T15:28:41;5.40;17.90
19106;DHT22;9685;54.338;18.672;2023-11-21T15:31:08;5.30;17.20
19106;DHT22;9685;54.338;18.672;2023-11-21T15:33:35;5.20;17.90
19106;DHT22;9685;54.338;18.672;2023-11-21T15:36:04;5.20;17.20
19106;DHT22;9685;54.338;18.672;2023-11-21T15:38:35;5.10;17.90
19106;DHT22;9685;54.338;18.672;2023-11-21T15:41:02;5.10;16.30
19106;DHT22;9685;54.338;18.672;2023-11-21T15:43:30;5.00;16.20
19106;DHT22;9685;54.338;18.672;2023-11-21T15:45:57;4.90;15.70
19106;DHT22;9685;54.338;18.672;2023-11-21T15:48:27;4.80;15.80
19106;DHT22;9685;54.338;18.672;2023-11-21T15:50:58;4.80;16.00
19106;DHT22;9685;54.338;18.672;2023-11-21T15:53:26;4.70;16.40